Terminal Aerodrome Forecast
Issued by NWS Detroit/Pontiac, MI

Home | Current Version | Previous Version | Text Only | Print | Product List | Glossary On
Versions: 1 2 3 4 5 6 7 8 9 10 11 12 13 14 15 16 17 18
817
FTUS43 KDTX 301127
TAFFNT
TAF
KFNT 301127Z 3012/0112 07005KT P6SM FEW045 SCT150
     FM301500 10012KT P6SM BKN200
     FM302200 11011KT 6SM -RA OVC060
     FM010200 08012KT 4SM RA BR OVC015
     FM010600 07010KT 4SM -RA BR OVC007=

USA.gov is the U.S. government's official web portal to all federal, state and local government web resources and services.